METAR Data
IDs: Format: Raw Decoded Include TAF

Data at: 0818 UTC 07 Apr 2020

METAR for:KDCA (Washington/National, VA, US)
Text:KDCA 070752Z 18005KT 10SM FEW070 OVC110 13/08 A2998 RMK AO2 RAB11E21 SLP149 P0000 T01330083
Temperature: 13.3°C ( 56°F)
Dewpoint: 8.3°C ( 47°F) [RH = 72%]
Pressure (altimeter):29.98 inches Hg (1015.3 mb) [Sea level pressure: 1014.9 mb]
Winds:from the S (180 degrees) at 6 MPH (5 knots; 2.6 m/s)
Visibility:10 or more sm (16+ km)
Ceiling:11000 feet AGL
Clouds: few clouds at 7000 feet AGL, overcast cloud deck at 11000 feet AGL